createdAt,value
2023-05-18T00:00:11.549Z,4.60
2023-05-18T00:02:40.870Z,4.43
2023-05-18T00:05:10.374Z,4.15
2023-05-18T00:07:39.464Z,4.00
2023-05-18T00:10:09.136Z,3.83
2023-05-18T00:12:38.614Z,3.67
2023-05-18T00:15:07.724Z,3.90
2023-05-18T00:17:35.878Z,4.22
2023-05-18T00:20:05.378Z,4.00
2023-05-18T00:22:33.531Z,4.20
2023-05-18T00:25:01.592Z,4.70
2023-05-18T00:27:29.622Z,3.58
2023-05-18T00:29:59.151Z,4.35
2023-05-18T00:32:27.282Z,4.18
2023-05-18T00:34:55.430Z,4.47
2023-05-18T00:37:24.153Z,4.38
2023-05-18T00:39:52.186Z,3.95
2023-05-18T00:42:20.419Z,4.38
2023-05-18T00:44:48.598Z,4.47
2023-05-18T00:47:20.980Z,4.07
2023-05-18T00:49:49.107Z,5.28
2023-05-18T00:52:18.829Z,4.57
2023-05-18T00:54:48.670Z,3.78
2023-05-18T00:57:19.076Z,4.35
2023-05-18T00:59:47.888Z,3.50
2023-05-18T01:02:18.574Z,4.82
2023-05-18T01:04:46.715Z,4.07
2023-05-18T01:07:16.650Z,4.20
2023-05-18T01:09:44.998Z,4.85
2023-05-18T01:12:22.310Z,4.13
2023-05-18T01:14:55.426Z,4.57
2023-05-18T01:17:35.057Z,4.88
2023-05-18T01:20:16.660Z,4.65
2023-05-18T01:23:03.164Z,4.90
2023-05-18T01:25:41.234Z,4.82
2023-05-18T01:28:17.213Z,5.53
2023-05-18T01:30:45.949Z,5.37
2023-05-18T01:33:15.542Z,4.85
2023-05-18T01:35:48.587Z,4.97
2023-05-18T01:38:18.687Z,4.20
2023-05-18T01:40:54.264Z,4.88
2023-05-18T01:43:29.629Z,5.63
2023-05-18T01:46:02.816Z,4.80
2023-05-18T01:48:31.770Z,5.18
2023-05-18T01:51:00.839Z,4.22
2023-05-18T01:53:35.404Z,4.82
2023-05-18T01:56:08.277Z,4.07
2023-05-18T01:58:39.387Z,6.43
2023-05-18T02:01:07.977Z,5.75
2023-05-18T02:03:36.231Z,5.70
2023-05-18T02:06:04.566Z,4.85
2023-05-18T02:08:33.701Z,4.35
2023-05-18T02:11:01.923Z,4.57
2023-05-18T02:13:29.947Z,4.68
2023-05-18T02:15:59.429Z,5.00
2023-05-18T02:18:27.581Z,5.50
2023-05-18T02:20:59.845Z,4.78
2023-05-18T02:23:28.170Z,5.10
2023-05-18T02:25:56.513Z,5.47
2023-05-18T02:28:25.775Z,4.78
2023-05-18T02:30:53.963Z,4.70
2023-05-18T02:33:26.660Z,5.03
2023-05-18T02:35:55.291Z,4.68
2023-05-18T02:38:23.474Z,7.15
2023-05-18T02:40:51.616Z,5.65
2023-05-18T02:43:19.638Z,5.32
2023-05-18T02:45:47.889Z,5.05
2023-05-18T02:48:16.329Z,5.13
2023-05-18T02:50:46.997Z,5.47
2023-05-18T02:53:15.074Z,6.03
2023-05-18T02:55:43.639Z,6.13
2023-05-18T02:58:17.513Z,4.63
2023-05-18T03:01:01.015Z,4.93
2023-05-18T03:03:35.548Z,4.95
2023-05-18T03:06:06.126Z,5.50
2023-05-18T03:08:34.424Z,5.20
2023-05-18T03:11:02.590Z,6.50
2023-05-18T03:13:31.095Z,6.03
2023-05-18T03:16:00.111Z,5.50
2023-05-18T03:18:29.022Z,5.65
2023-05-18T03:21:02.156Z,4.72
2023-05-18T03:23:32.626Z,5.35
2023-05-18T03:26:02.648Z,5.57
2023-05-18T03:28:31.919Z,5.28
2023-05-18T03:31:00.654Z,5.18
2023-05-18T03:33:28.825Z,6.38
2023-05-18T03:35:57.276Z,5.13
2023-05-18T03:38:25.551Z,5.88
2023-05-18T03:41:01.423Z,6.15
2023-05-18T03:43:32.663Z,5.13
2023-05-18T03:46:02.329Z,5.70
2023-05-18T03:48:30.800Z,4.90
2023-05-18T03:50:59.061Z,4.47
2023-05-18T03:53:30.652Z,5.68
2023-05-18T03:55:58.976Z,4.93
2023-05-18T03:58:29.270Z,5.78
2023-05-18T04:00:57.472Z,6.40
2023-05-18T04:03:27.291Z,7.30
2023-05-18T04:05:56.169Z,6.55
2023-05-18T04:08:25.650Z,5.28
2023-05-18T04:10:54.006Z,5.60
2023-05-18T04:13:22.042Z,5.43
2023-05-18T04:15:51.915Z,5.60
2023-05-18T04:18:20.011Z,5.90
2023-05-18T04:20:48.050Z,6.68
2023-05-18T04:23:16.929Z,5.70
2023-05-18T04:25:45.068Z,5.90
2023-05-18T04:28:13.230Z,5.15
2023-05-18T04:30:41.853Z,4.45
2023-05-18T04:33:12.917Z,4.95
2023-05-18T04:35:42.083Z,5.88
2023-05-18T04:38:10.823Z,5.50
2023-05-18T04:40:42.837Z,5.72
2023-05-18T04:43:13.157Z,5.13
2023-05-18T04:45:41.260Z,5.00
2023-05-18T04:48:09.487Z,4.57
2023-05-18T04:50:40.124Z,5.50
2023-05-18T04:53:09.443Z,5.95
2023-05-18T04:55:37.788Z,5.57
2023-05-18T04:58:10.518Z,6.10
2023-05-18T05:00:38.696Z,5.57
2023-05-18T05:03:07.037Z,4.40
2023-05-18T05:05:35.974Z,5.00
2023-05-18T05:08:06.680Z,4.38
2023-05-18T05:10:34.815Z,5.05
2023-05-18T05:13:03.036Z,4.05
2023-05-18T05:15:31.469Z,3.95
2023-05-18T05:18:00.080Z,3.55
2023-05-18T05:20:28.153Z,3.63
2023-05-18T05:22:56.445Z,3.80
2023-05-18T05:25:29.163Z,3.42
2023-05-18T05:27:57.511Z,3.60
2023-05-18T05:30:25.942Z,3.00
2023-05-18T05:32:54.161Z,3.78
2023-05-18T05:38:42.963Z,3.35
2023-05-18T05:41:14.828Z,2.47
2023-05-18T05:43:42.927Z,2.50
2023-05-18T05:46:11.086Z,2.45
2023-05-18T05:48:39.173Z,3.45
2023-05-18T05:51:07.324Z,3.15
2023-05-18T05:53:35.608Z,2.95
2023-05-18T05:56:04.652Z,2.60
2023-05-18T05:58:36.490Z,2.83
2023-05-18T06:01:04.661Z,2.50
2023-05-18T06:03:34.443Z,2.67
2023-05-18T06:06:06.828Z,2.60
2023-05-18T06:08:34.897Z,2.88
2023-05-18T06:11:03.086Z,2.53
2023-05-18T06:13:32.195Z,2.35
2023-05-18T06:16:01.605Z,2.40
2023-05-18T06:18:30.313Z,2.22
2023-05-18T06:21:02.350Z,2.28
2023-05-18T06:23:30.668Z,2.47
2023-05-18T06:26:04.866Z,1.92
2023-05-18T06:28:38.492Z,3.90
2023-05-18T06:31:24.942Z,2.75
2023-05-18T06:34:15.283Z,3.10
2023-05-18T06:36:43.498Z,2.40
2023-05-18T06:39:11.609Z,2.60
2023-05-18T06:41:39.971Z,3.55
2023-05-18T06:44:08.125Z,2.85
2023-05-18T06:46:39.245Z,3.13
2023-05-18T06:49:19.151Z,2.70
2023-05-18T06:51:47.328Z,2.78
2023-05-18T06:54:16.397Z,2.20
2023-05-18T06:56:44.669Z,2.88
2023-05-18T06:59:12.801Z,2.05
2023-05-18T07:01:42.397Z,3.00
2023-05-18T07:04:10.954Z,2.25
2023-05-18T07:06:39.108Z,2.22
2023-05-18T07:09:08.079Z,2.30
2023-05-18T07:11:36.152Z,2.03
2023-05-18T07:14:04.324Z,2.45
2023-05-18T07:16:32.366Z,2.67
2023-05-18T07:19:01.904Z,2.15
2023-05-18T07:21:30.078Z,2.20
2023-05-18T07:23:58.382Z,2.22
2023-05-18T07:26:26.595Z,2.55
2023-05-18T07:28:55.351Z,1.95
2023-05-18T07:31:23.382Z,2.30
2023-05-18T07:33:51.506Z,2.05
2023-05-18T07:36:21.180Z,2.38
2023-05-18T07:38:55.041Z,2.50
2023-05-18T07:41:23.774Z,3.08
2023-05-18T07:43:52.836Z,2.30
2023-05-18T07:46:21.322Z,2.90
2023-05-18T07:48:49.529Z,1.80
2023-05-18T07:51:17.611Z,2.20
2023-05-18T07:53:47.447Z,1.98
2023-05-18T07:56:15.536Z,2.40
2023-05-18T07:58:44.671Z,2.85
2023-05-18T08:01:12.741Z,2.70
2023-05-18T08:03:40.816Z,2.25
2023-05-18T08:06:08.997Z,2.45
2023-05-18T08:08:38.027Z,2.53
2023-05-18T08:11:07.643Z,2.33
2023-05-18T08:13:35.883Z,2.63
2023-05-18T08:16:11.874Z,2.53
2023-05-18T08:18:41.028Z,2.20
2023-05-18T08:21:10.049Z,2.90
2023-05-18T08:23:40.022Z,2.55
2023-05-18T08:26:11.430Z,2.85
2023-05-18T08:28:41.017Z,2.72
2023-05-18T08:31:09.155Z,2.08
2023-05-18T08:33:37.166Z,2.83
2023-05-18T08:36:06.262Z,2.58
2023-05-18T08:38:34.274Z,2.28
2023-05-18T08:41:09.429Z,1.98
2023-05-18T08:43:43.136Z,2.50
2023-05-18T08:46:19.602Z,2.60
2023-05-18T08:48:48.406Z,3.08
2023-05-18T08:51:21.199Z,2.83
2023-05-18T08:53:53.891Z,2.92
2023-05-18T08:56:24.498Z,2.80
2023-05-18T08:58:56.981Z,2.92
2023-05-18T09:01:29.146Z,2.58
2023-05-18T09:03:58.372Z,2.70
2023-05-18T09:06:28.493Z,2.85
2023-05-18T09:08:58.590Z,2.72
2023-05-18T09:11:28.639Z,2.45
2023-05-18T09:13:58.297Z,2.50
2023-05-18T09:16:26.518Z,2.70
2023-05-18T09:18:55.067Z,2.90
2023-05-18T09:21:23.229Z,3.00
2023-05-18T09:23:52.607Z,2.58
2023-05-18T09:26:21.779Z,2.60
2023-05-18T09:28:53.915Z,3.33
2023-05-18T09:31:24.864Z,2.60
2023-05-18T09:33:53.605Z,2.67
2023-05-18T09:36:26.186Z,2.55
2023-05-18T09:38:54.514Z,2.60
2023-05-18T09:41:22.719Z,2.55
2023-05-18T09:43:52.616Z,2.90
2023-05-18T09:46:22.200Z,2.63
2023-05-18T09:48:52.864Z,2.65
2023-05-18T09:51:25.096Z,2.40
2023-05-18T09:53:55.971Z,2.45
2023-05-18T09:56:24.714Z,2.72
2023-05-18T09:58:52.924Z,3.03
2023-05-18T10:01:21.079Z,2.80
2023-05-18T10:03:50.028Z,3.10
2023-05-18T10:06:21.241Z,2.92
2023-05-18T10:08:49.830Z,3.42
2023-05-18T10:11:20.175Z,3.35
2023-05-18T10:13:48.297Z,2.78
2023-05-18T10:16:16.814Z,2.97
2023-05-18T10:18:45.123Z,3.45
2023-05-18T10:21:15.353Z,2.72
2023-05-18T10:23:48.555Z,3.30
2023-05-18T10:26:21.330Z,2.70
2023-05-18T10:28:51.560Z,2.65
2023-05-18T10:31:21.631Z,2.88
2023-05-18T10:33:51.755Z,2.70
2023-05-18T10:36:20.693Z,3.13
2023-05-18T10:38:50.811Z,3.20
2023-05-18T10:41:22.719Z,2.97
2023-05-18T10:43:51.953Z,3.42
2023-05-18T10:46:21.594Z,3.28
2023-05-18T10:48:52.640Z,2.65
2023-05-18T10:51:22.342Z,2.70
2023-05-18T10:53:53.353Z,2.72
2023-05-18T10:56:24.934Z,2.90
2023-05-18T10:58:53.477Z,2.75
2023-05-18T11:01:21.975Z,3.67
2023-05-18T11:03:51.033Z,3.22
2023-05-18T11:06:25.706Z,3.08
2023-05-18T11:08:55.300Z,3.17
2023-05-18T11:11:26.572Z,3.25
2023-05-18T11:13:55.967Z,2.78
2023-05-18T11:16:35.242Z,3.05
2023-05-18T11:19:07.377Z,3.25
2023-05-18T11:21:55.000Z,2.95
2023-05-18T11:24:31.531Z,3.45
2023-05-18T11:29:33.370Z,2.70
2023-05-18T11:32:02.642Z,2.95
2023-05-18T11:34:44.956Z,2.75
2023-05-18T11:37:14.967Z,3.80
2023-05-18T11:40:00.153Z,2.95
2023-05-18T11:45:08.024Z,2.17
2023-05-18T11:47:38.044Z,2.78
2023-05-18T11:50:08.824Z,3.20
2023-05-18T11:52:47.557Z,3.20
2023-05-18T11:55:19.259Z,3.10
2023-05-18T11:57:52.362Z,3.40
2023-05-18T12:00:21.655Z,2.95
2023-05-18T12:02:50.364Z,3.50
2023-05-18T12:05:18.833Z,3.30
2023-05-18T12:07:54.751Z,2.92
2023-05-18T12:10:24.396Z,2.92
2023-05-18T12:12:54.163Z,3.35
2023-05-18T12:15:25.020Z,2.72
2023-05-18T12:17:53.633Z,2.47
2023-05-18T12:20:25.203Z,2.30
2023-05-18T12:22:54.867Z,2.88
2023-05-18T12:25:25.733Z,2.58
2023-05-18T12:27:54.969Z,3.10
2023-05-18T12:30:24.341Z,2.72
2023-05-18T12:32:54.461Z,3.30
2023-05-18T12:35:23.962Z,2.95
2023-05-18T12:37:52.368Z,3.72
2023-05-18T12:40:21.302Z,2.60
2023-05-18T12:42:54.698Z,2.72
2023-05-18T12:45:24.522Z,2.92
2023-05-18T12:47:54.815Z,2.60
2023-05-18T12:50:24.077Z,2.53
2023-05-18T12:52:52.546Z,2.40
2023-05-18T12:55:23.023Z,2.83
2023-05-18T12:58:02.343Z,3.00
2023-05-18T13:00:33.841Z,2.75
2023-05-18T13:03:10.294Z,2.70
2023-05-18T13:05:42.014Z,2.72
2023-05-18T13:08:10.778Z,3.72
2023-05-18T13:10:38.834Z,2.83
2023-05-18T13:13:08.319Z,2.35
2023-05-18T13:15:38.506Z,3.00
2023-05-18T13:18:10.067Z,2.50
2023-05-18T13:20:41.726Z,2.25
2023-05-18T13:23:11.638Z,2.40
2023-05-18T13:25:39.969Z,2.92
2023-05-18T13:28:10.696Z,2.55
2023-05-18T13:30:39.469Z,2.83
2023-05-18T13:33:10.033Z,2.42
2023-05-18T13:35:38.449Z,2.95
2023-05-18T13:38:06.584Z,2.60
2023-05-18T13:40:34.862Z,2.53
2023-05-18T13:43:03.021Z,2.60
2023-05-18T13:45:33.096Z,2.58
2023-05-18T13:48:01.522Z,2.65
2023-05-18T13:50:29.777Z,2.83
2023-05-18T13:52:58.236Z,2.40
2023-05-18T13:55:26.360Z,2.45
2023-05-18T13:57:54.473Z,2.63
2023-05-18T14:00:22.680Z,2.80
2023-05-18T14:02:53.243Z,2.72
2023-05-18T14:05:22.348Z,2.67
2023-05-18T14:07:50.445Z,2.70
2023-05-18T14:10:18.527Z,2.28
2023-05-18T14:12:46.627Z,2.95
2023-05-18T14:15:15.098Z,2.67
2023-05-18T14:17:43.609Z,2.88
2023-05-18T14:20:14.076Z,2.72
2023-05-18T14:22:42.380Z,3.20
2023-05-18T14:25:10.802Z,3.30
2023-05-18T14:27:38.957Z,2.47
2023-05-18T14:30:08.380Z,2.72
2023-05-18T14:32:36.612Z,3.00
2023-05-18T14:35:05.375Z,2.65
2023-05-18T14:37:34.998Z,3.35
2023-05-18T14:40:03.083Z,2.42
2023-05-18T14:42:31.478Z,2.55
2023-05-18T14:44:59.579Z,2.70
2023-05-18T14:47:27.748Z,2.83
2023-05-18T14:49:55.927Z,2.75
2023-05-18T14:52:24.174Z,3.65
2023-05-18T14:54:53.688Z,2.30
2023-05-18T14:57:21.712Z,2.72
2023-05-18T14:59:49.758Z,3.42
2023-05-18T15:02:17.952Z,3.13
2023-05-18T15:04:46.195Z,2.97
2023-05-18T15:07:14.342Z,3.00
2023-05-18T15:09:42.350Z,2.95
2023-05-18T15:12:12.206Z,3.30
2023-05-18T15:14:40.293Z,2.97
2023-05-18T15:17:08.684Z,3.35
2023-05-18T15:19:37.242Z,3.67
2023-05-18T15:22:05.862Z,2.88
2023-05-18T15:24:33.975Z,2.78
2023-05-18T15:27:03.261Z,2.90
2023-05-18T15:29:32.728Z,2.65
2023-05-18T15:32:01.147Z,2.90
2023-05-18T15:34:29.909Z,2.40
2023-05-18T15:36:57.976Z,2.72
2023-05-18T15:39:26.057Z,2.10
2023-05-18T15:41:54.120Z,2.97
2023-05-18T15:44:22.481Z,3.00
2023-05-18T15:46:52.053Z,3.00
2023-05-18T15:49:21.765Z,3.00
2023-05-18T15:51:49.847Z,2.95
2023-05-18T15:54:18.011Z,2.40
2023-05-18T15:56:46.128Z,2.40
2023-05-18T15:59:14.226Z,2.83
2023-05-18T16:01:42.522Z,3.10
2023-05-18T16:04:12.022Z,3.00
2023-05-18T16:06:40.285Z,2.67
2023-05-18T16:09:08.420Z,3.40
2023-05-18T16:11:36.850Z,3.20
2023-05-18T16:14:05.207Z,2.90
2023-05-18T16:16:33.321Z,2.78
2023-05-18T16:19:02.423Z,2.60
2023-05-18T16:21:32.872Z,2.97
2023-05-18T16:24:01.127Z,3.15
2023-05-18T16:26:29.197Z,2.70
2023-05-18T16:28:57.338Z,2.30
2023-05-18T16:31:25.453Z,2.28
2023-05-18T16:33:53.568Z,2.70
2023-05-18T16:36:21.711Z,2.50
2023-05-18T16:38:51.392Z,3.10
2023-05-18T16:41:19.624Z,2.45
2023-05-18T16:43:47.857Z,2.55
2023-05-18T16:46:17.461Z,3.00
2023-05-18T16:48:45.548Z,2.55
2023-05-18T16:51:13.660Z,3.25
2023-05-18T16:53:42.705Z,2.63
2023-05-18T16:56:12.422Z,2.40
2023-05-18T16:58:40.566Z,2.60
2023-05-18T17:01:19.326Z,2.80
2023-05-18T17:03:54.599Z,2.55
2023-05-18T17:06:22.832Z,2.30
2023-05-18T17:08:57.471Z,2.50
2023-05-18T17:11:28.083Z,2.85
2023-05-18T17:13:57.824Z,2.58
2023-05-18T17:16:26.786Z,2.85
2023-05-18T17:18:56.224Z,2.78
2023-05-18T17:21:26.736Z,2.35
2023-05-18T17:23:54.949Z,2.92
2023-05-18T17:26:25.032Z,2.80
2023-05-18T17:28:54.557Z,2.40
2023-05-18T17:31:22.810Z,3.13
2023-05-18T17:33:50.989Z,2.50
2023-05-18T17:36:19.224Z,2.40
2023-05-18T17:38:47.945Z,2.50
2023-05-18T17:41:16.309Z,2.70
2023-05-18T17:43:44.405Z,2.95
2023-05-18T17:46:13.870Z,3.25
2023-05-18T17:48:42.149Z,2.72
2023-05-18T17:51:10.211Z,3.10
2023-05-18T17:53:42.158Z,2.78
2023-05-18T17:56:11.833Z,2.78
2023-05-18T17:58:39.974Z,3.33
2023-05-18T18:01:08.834Z,2.45
2023-05-18T18:03:38.565Z,3.25
2023-05-18T18:06:07.526Z,2.33
2023-05-18T18:08:36.745Z,2.90
2023-05-18T18:11:07.678Z,2.50
2023-05-18T18:13:37.225Z,2.28
2023-05-18T18:16:05.818Z,2.30
2023-05-18T18:18:36.170Z,1.90
2023-05-18T18:21:06.624Z,2.25
2023-05-18T18:23:35.099Z,2.17
2023-05-18T18:26:04.520Z,2.42
2023-05-18T18:28:32.977Z,2.45
2023-05-18T18:31:02.262Z,3.10
2023-05-18T18:33:30.581Z,3.05
2023-05-18T18:35:58.999Z,3.60
2023-05-18T18:38:28.921Z,3.03
2023-05-18T18:41:01.454Z,3.35
2023-05-18T18:43:29.874Z,3.10
2023-05-18T18:45:58.158Z,3.30
2023-05-18T18:48:26.803Z,2.08
2023-05-18T18:50:55.159Z,2.17
2023-05-18T18:53:23.372Z,2.35
2023-05-18T18:55:52.791Z,2.20
2023-05-18T18:58:24.108Z,2.30
2023-05-18T19:00:52.316Z,2.30
2023-05-18T19:03:21.826Z,1.73
2023-05-18T19:05:50.705Z,2.10
2023-05-18T19:08:19.082Z,3.00
2023-05-18T19:10:47.324Z,1.95
2023-05-18T19:13:16.714Z,2.30
2023-05-18T19:15:45.458Z,2.50
2023-05-18T19:18:13.756Z,3.00
2023-05-18T19:20:41.846Z,2.05
2023-05-18T19:23:09.992Z,2.05
2023-05-18T19:25:38.152Z,1.90
2023-05-18T19:28:06.819Z,2.60
2023-05-18T19:30:36.272Z,2.25
2023-05-18T19:33:04.628Z,2.05
2023-05-18T19:35:33.766Z,1.80
2023-05-18T19:38:02.611Z,2.35
2023-05-18T19:40:30.901Z,2.28
2023-05-18T19:42:59.912Z,2.20
2023-05-18T19:45:28.152Z,2.05
2023-05-18T19:47:58.314Z,1.67
2023-05-18T19:50:26.625Z,1.98
2023-05-18T19:52:54.727Z,1.73
2023-05-18T19:55:24.198Z,1.60
2023-05-18T19:57:52.304Z,1.30
2023-05-18T20:00:20.506Z,1.55
2023-05-18T20:02:48.537Z,1.90
2023-05-18T20:05:18.966Z,2.22
2023-05-18T20:07:47.250Z,2.10
2023-05-18T20:10:15.424Z,1.63
2023-05-18T20:12:43.436Z,1.65
2023-05-18T20:15:12.146Z,1.83
2023-05-18T20:17:40.368Z,1.70
2023-05-18T20:20:09.913Z,1.90
2023-05-18T20:22:40.111Z,1.70
2023-05-18T20:25:09.408Z,2.17
2023-05-18T20:27:38.117Z,1.73
2023-05-18T20:30:07.314Z,1.70
2023-05-18T20:32:35.477Z,2.05
2023-05-18T20:35:03.584Z,1.98
2023-05-18T20:37:34.096Z,2.03
2023-05-18T20:40:08.952Z,2.95
2023-05-18T20:42:40.371Z,3.25
2023-05-18T20:45:10.089Z,3.63
2023-05-18T20:47:38.275Z,3.33
2023-05-18T20:50:07.498Z,2.95
2023-05-18T20:52:35.584Z,3.60
2023-05-18T20:55:05.383Z,2.97
2023-05-18T20:57:34.772Z,2.70
2023-05-18T21:00:05.089Z,2.50
2023-05-18T21:02:33.556Z,2.42
2023-05-18T21:05:02.806Z,2.85
2023-05-18T21:07:30.859Z,2.83
2023-05-18T21:09:59.106Z,2.80
2023-05-18T21:12:28.856Z,2.80
2023-05-18T21:14:57.426Z,3.25
2023-05-18T21:17:25.625Z,3.60
2023-05-18T21:19:53.956Z,3.67
2023-05-18T21:22:22.055Z,3.20
2023-05-18T21:24:50.136Z,3.78
2023-05-18T21:27:18.188Z,3.55
2023-05-18T21:29:47.665Z,3.88
2023-05-18T21:32:15.806Z,3.50
2023-05-18T21:34:44.026Z,3.90
2023-05-18T21:37:12.177Z,4.22
2023-05-18T21:39:42.149Z,3.17
2023-05-18T21:42:10.249Z,3.72
2023-05-18T21:44:38.481Z,4.13
2023-05-18T21:47:08.130Z,4.05
2023-05-18T21:49:36.203Z,5.45
2023-05-18T21:52:04.455Z,4.20
2023-05-18T21:54:33.522Z,4.63
2023-05-18T21:57:01.783Z,3.95
2023-05-18T21:59:29.949Z,3.95
2023-05-18T22:01:58.019Z,4.82
2023-05-18T22:04:27.710Z,4.95
2023-05-18T22:06:55.753Z,4.40
2023-05-18T22:09:23.859Z,4.28
2023-05-18T22:11:51.969Z,4.10
2023-05-18T22:14:20.073Z,3.80
2023-05-18T22:16:48.262Z,4.40
2023-05-18T22:19:16.515Z,4.28
2023-05-18T22:21:46.018Z,4.85
2023-05-18T22:24:14.087Z,3.58
2023-05-18T22:26:43.336Z,4.38
2023-05-18T22:29:11.752Z,5.50
2023-05-18T22:31:39.867Z,4.45
2023-05-18T22:34:07.994Z,4.22
2023-05-18T22:36:36.286Z,4.20
2023-05-18T22:39:05.728Z,4.60
2023-05-18T22:41:33.843Z,4.53
2023-05-18T22:44:02.115Z,3.85
2023-05-18T22:46:30.491Z,4.10
2023-05-18T22:48:59.194Z,4.18
2023-05-18T22:51:28.306Z,4.35
2023-05-18T22:53:56.768Z,4.63
2023-05-18T22:56:27.446Z,3.85
2023-05-18T22:58:55.502Z,5.00
2023-05-18T23:01:23.605Z,5.55
2023-05-18T23:03:51.713Z,4.72
2023-05-18T23:06:22.447Z,4.50
2023-05-18T23:08:50.590Z,4.15
2023-05-18T23:11:19.955Z,4.18
2023-05-18T23:13:51.274Z,4.82
2023-05-18T23:16:20.616Z,4.72
2023-05-18T23:18:50.670Z,4.63
2023-05-18T23:21:18.808Z,5.20
2023-05-18T23:23:46.982Z,6.18
2023-05-18T23:26:15.045Z,4.85
2023-05-18T23:28:43.059Z,5.57
2023-05-18T23:31:12.646Z,4.38
2023-05-18T23:33:41.164Z,4.82
2023-05-18T23:36:09.970Z,4.90
2023-05-18T23:38:40.996Z,4.60
2023-05-18T23:41:10.252Z,4.28
2023-05-18T23:43:38.969Z,4.68
2023-05-18T23:46:07.893Z,4.20
2023-05-18T23:48:38.358Z,4.30
2023-05-18T23:51:08.670Z,3.75
2023-05-18T23:53:37.060Z,4.07
2023-05-18T23:56:06.486Z,4.10
2023-05-18T23:58:35.159Z,4.90
